createdAt,value
2022-08-01T00:44:34.361Z,19.20
2022-08-01T00:47:05.250Z,19.10
2022-08-01T00:49:34.987Z,19.10
2022-08-01T00:52:06.004Z,19.10
2022-08-01T00:54:36.064Z,19.10
2022-08-01T00:57:09.898Z,19.10
2022-08-01T00:59:41.443Z,19.00
2022-08-01T01:02:14.961Z,19.00
2022-08-01T01:04:45.515Z,19.00
2022-08-01T01:07:32.170Z,18.90
2022-08-01T01:10:06.783Z,18.90
2022-08-01T01:12:49.843Z,18.80
2022-08-01T01:15:24.457Z,18.70
2022-08-01T01:18:05.195Z,18.70
2022-08-01T01:20:38.332Z,18.60
2022-08-01T01:23:22.984Z,18.60
2022-08-01T01:26:35.783Z,18.60
2022-08-01T01:29:58.653Z,18.60
2022-08-01T01:32:37.228Z,18.50
2022-08-01T01:35:14.856Z,18.50
2022-08-01T01:37:45.444Z,18.50
2022-08-01T01:40:16.051Z,18.50
2022-08-01T01:42:46.671Z,18.50
2022-08-01T01:45:17.267Z,18.40
2022-08-01T01:47:48.879Z,18.40
2022-08-01T01:50:17.488Z,18.50
2022-08-01T01:52:48.069Z,18.40
2022-08-01T01:55:18.445Z,18.30
2022-08-01T01:57:48.289Z,18.30
2022-08-01T02:00:16.887Z,18.30
2022-08-01T02:02:46.546Z,18.20
2022-08-01T02:05:16.080Z,18.20
2022-08-01T02:07:45.700Z,18.20
2022-08-01T02:10:18.283Z,18.10
2022-08-01T02:12:51.903Z,18.10
2022-08-01T02:15:24.577Z,18.10
2022-08-01T02:17:57.135Z,18.10
2022-08-01T02:20:28.620Z,18.10
2022-08-01T02:23:09.371Z,18.10
2022-08-01T02:26:10.564Z,18.10
2022-08-01T02:28:45.110Z,18.10
2022-08-01T02:31:17.337Z,18.10
2022-08-01T02:33:52.461Z,18.10
2022-08-01T02:36:28.979Z,18.00
2022-08-01T02:39:05.210Z,18.00
2022-08-01T02:41:35.845Z,18.00
2022-08-01T02:44:08.441Z,18.10
2022-08-01T02:46:45.080Z,18.00
2022-08-01T02:49:14.782Z,18.00
2022-08-01T02:51:45.305Z,18.00
2022-08-01T02:54:13.889Z,17.90
2022-08-01T02:56:43.483Z,17.90
2022-08-01T02:59:14.955Z,17.90
2022-08-01T03:01:47.759Z,17.90
2022-08-01T03:04:19.616Z,17.90
2022-08-01T03:06:48.918Z,17.80
2022-08-01T03:09:18.637Z,17.80
2022-08-01T03:11:50.163Z,17.80
2022-08-01T03:14:20.723Z,17.80
2022-08-01T03:16:54.345Z,17.80
2022-08-01T03:19:24.749Z,17.80
2022-08-01T03:21:54.557Z,17.70
2022-08-01T03:24:27.179Z,17.70
2022-08-01T03:26:56.969Z,17.70
2022-08-01T03:29:27.287Z,17.80
2022-08-01T03:31:56.721Z,17.80
2022-08-01T03:34:25.603Z,17.80
2022-08-01T03:37:07.218Z,17.80
2022-08-01T03:40:00.014Z,17.80
2022-08-01T03:42:38.527Z,17.80
2022-08-01T03:45:15.335Z,17.90
2022-08-01T03:47:46.786Z,17.80
2022-08-01T03:50:19.428Z,17.80
2022-08-01T03:52:50.031Z,17.80
2022-08-01T03:55:20.612Z,17.80
2022-08-01T03:57:50.984Z,17.80
2022-08-01T04:00:20.833Z,17.80
2022-08-01T04:02:50.422Z,17.80
2022-08-01T04:05:20.038Z,17.80
2022-08-01T04:07:59.820Z,17.90
2022-08-01T04:10:30.205Z,17.80
2022-08-01T04:12:58.843Z,17.90
2022-08-01T04:15:27.446Z,18.00
2022-08-01T04:17:57.087Z,18.00
2022-08-01T04:20:24.648Z,18.00
2022-08-01T04:22:54.699Z,18.00
2022-08-01T04:25:28.889Z,18.00
2022-08-01T04:28:00.950Z,18.00
2022-08-01T04:30:32.096Z,18.00
2022-08-01T04:33:01.701Z,18.10
2022-08-01T04:36:02.740Z,18.10
2022-08-01T04:38:25.007Z,18.10
2022-08-01T04:40:54.614Z,18.10
2022-08-01T04:43:23.198Z,18.20
2022-08-01T04:45:54.801Z,18.20
2022-08-01T04:48:24.463Z,18.20
2022-08-01T04:50:52.581Z,18.20
2022-08-01T04:53:24.630Z,18.30
2022-08-01T04:55:52.420Z,18.30
2022-08-01T04:58:22.987Z,18.30
2022-08-01T05:00:50.207Z,18.40
2022-08-01T05:03:18.033Z,18.30
2022-08-01T05:05:46.613Z,18.40
2022-08-01T05:08:15.206Z,18.50
2022-08-01T05:10:42.837Z,18.50
2022-08-01T05:13:11.420Z,18.50
2022-08-01T05:15:39.026Z,18.60
2022-08-01T05:18:09.690Z,18.60
2022-08-01T05:20:39.259Z,18.60
2022-08-01T05:23:10.204Z,18.60
2022-08-01T05:25:56.886Z,18.70
2022-08-01T05:28:28.677Z,18.70
2022-08-01T05:30:56.913Z,18.80
2022-08-01T05:33:25.298Z,18.80
2022-08-01T05:35:52.853Z,18.80
2022-08-01T05:38:21.461Z,18.90
2022-08-01T05:40:49.049Z,18.90
2022-08-01T05:43:16.638Z,18.80
2022-08-01T05:45:45.252Z,18.80
2022-08-01T05:48:13.833Z,18.90
2022-08-01T05:50:42.421Z,18.90
2022-08-01T05:53:11.024Z,18.90
2022-08-01T05:55:38.671Z,18.90
2022-08-01T05:58:08.221Z,18.90
2022-08-01T06:00:40.852Z,18.90
2022-08-01T06:03:08.421Z,19.00
2022-08-01T06:05:35.994Z,19.00
2022-08-01T06:08:04.110Z,19.10
2022-08-01T09:44:42.264Z,21.60
